Missoula, Montana
Current Conditions -  °F | °C
As of 5:53 AM on Thursday 18 Dec 2014 (Local Time) from KMSO Reporting Station
Overcast Overcast  
Wind Chill: 28°   Ceiling: 11000
Heat Index: 28°   Visibility: 10mi
Dew Point: 26°   Wind: 0mph
Humidity: 92%   Direction: NA
Pressure: 30"   Gusts: NA
Location:  46.87°N, 113.99°W
Report Text: KMSO 181253Z 00000KT 10SM SCT075 OVC110 M02/M03 A3000 RMK AO2 SLP193 T10221033
Loading
Personal Weather Stations






























Interactive Weather Map New forecast layout! Learn more

10-Day Weather Forecast

Advertisements
Track Severe Weather on mobile